Map

Track Data

SID SEASON NUMBER BASIN SUBBASIN NAME ISO_TIME NATURE LAT LON WMO_WIND WMO_PRES WMO_AGENCY TRACK_TYPE DIST2LAND LANDFALL IFLAG USA_AGENCY USA_ATCF_ID USA_LAT USA_LON USA_RECORD USA_STATUS USA_WIND USA_PRES USA_SSHS USA_R34_NE USA_R34_SE USA_R34_SW USA_R34_NW USA_R50_NE USA_R50_SE USA_R50_SW USA_R50_NW USA_R64_NE USA_R64_SE USA_R64_SW USA_R64_NW USA_POCI USA_ROCI USA_RMW USA_EYE TOKYO_LAT TOKYO_LON TOKYO_GRADE TOKYO_WIND TOKYO_PRES TOKYO_R50_DIR TOKYO_R50_LONG TOKYO_R50_SHORT TOKYO_R30_DIR TOKYO_R30_LONG TOKYO_R30_SHORT TOKYO_LAND CMA_LAT CMA_LON CMA_CAT CMA_WIND CMA_PRES HKO_LAT HKO_LON HKO_CAT HKO_WIND HKO_PRES NEWDELHI_LAT NEWDELHI_LON NEWDELHI_GRADE NEWDELHI_WIND NEWDELHI_PRES NEWDELHI_CI NEWDELHI_DP NEWDELHI_POCI REUNION_LAT REUNION_LON REUNION_TYPE REUNION_WIND REUNION_PRES REUNION_TNUM REUNION_CI REUNION_RMW REUNION_R34_NE REUNION_R34_SE REUNION_R34_SW REUNION_R34_NW REUNION_R50_NE REUNION_R50_SE REUNION_R50_SW REUNION_R50_NW REUNION_R64_NE REUNION_R64_SE REUNION_R64_SW REUNION_R64_NW BOM_LAT BOM_LON BOM_TYPE BOM_WIND BOM_PRES BOM_TNUM BOM_CI BOM_RMW BOM_R34_NE BOM_R34_SE BOM_R34_SW BOM_R34_NW BOM_R50_NE BOM_R50_SE BOM_R50_SW BOM_R50_NW BOM_R64_NE BOM_R64_SE BOM_R64_SW BOM_R64_NW BOM_ROCI BOM_POCI BOM_EYE BOM_POS_METHOD BOM_PRES_METHOD NADI_LAT NADI_LON NADI_CAT NADI_WIND NADI_PRES WELLINGTON_LAT WELLINGTON_LON WELLINGTON_WIND WELLINGTON_PRES DS824_LAT DS824_LON DS824_STAGE DS824_WIND DS824_PRES TD9636_LAT TD9636_LON TD9636_STAGE TD9636_WIND TD9636_PRES TD9635_LAT TD9635_LON TD9635_WIND TD9635_PRES TD9635_ROCI NEUMANN_LAT NEUMANN_LON NEUMANN_CLASS NEUMANN_WIND NEUMANN_PRES MLC_LAT MLC_LON MLC_CLASS MLC_WIND MLC_PRES USA_GUST BOM_GUST BOM_GUST_PER REUNION_GUST REUNION_GUST_PER USA_SEAHGT USA_SEARAD_NE USA_SEARAD_SE USA_SEARAD_SW USA_SEARAD_NW STORM_SPEED STORM_DIR
2018358N07140 2018 114 WP MM NOT_NAMED 2018-12-23 12:00:00 NR 6.80000 140.400 main 972 955 O_____________ jtwc_wp WP352018 6.80000 140.400 DB 20 1006 -3 1006 140 40 12 275
2018358N07140 2018 114 WP MM NOT_NAMED 2018-12-23 15:00:00 NR 6.84760 139.807 main 955 937 P_____________ WP352018 6.84760 139.807 DB 20 1006 -3 1005 132 45 12 275
2018358N07140 2018 114 WP MM NOT_NAMED 2018-12-23 18:00:00 NR 6.90000 139.200 main 937 917 O_____________ jtwc_wp WP352018 6.90000 139.200 DB 20 1006 -3 1004 125 50 12 275
2018358N07140 2018 114 WP MM NOT_NAMED 2018-12-23 21:00:00 NR 6.95750 138.578 main 924 903 P_____________ WP352018 6.95750 138.578 DB 20 1006 -3 1004 127 50 12 275
2018358N07140 2018 114 WP MM NOT_NAMED 2018-12-24 00:00:00 NR 7.00000 138.000 main 903 888 O_____________ jtwc_wp WP352018 7.00000 138.000 DB 20 1006 -3 1005 130 50 11 272
2018358N07140 2018 114 WP MM NOT_NAMED 2018-12-24 03:00:00 NR 6.99994 137.505 main 888 878 P_____________ WP352018 6.99994 137.505 DB 20 1005 -3 1004 140 50 9 270
2018358N07140 2018 114 WP MM NOT_NAMED 2018-12-24 06:00:00 NR 7.00000 137.100 main 878 873 O_____________ jtwc_wp WP352018 7.00000 137.100 DB 20 1005 -3 1004 150 50 7 273
2018358N07140 2018 114 WP MM NOT_NAMED 2018-12-24 09:00:00 NR 7.04244 136.770 main 873 871 P_____________ WP352018 7.04244 136.770 DB 20 1005 -3 1004 150 47 6 280
2018358N07140 2018 114 WP MM NOT_NAMED 2018-12-24 12:00:00 NR 7.10000 136.500 main 879 876 O_____________ jtwc_wp WP352018 7.10000 136.500 DB 20 1005 -3 1004 150 45 5 279
2018358N07140 2018 114 WP MM NOT_NAMED 2018-12-24 15:00:00 NR 7.12749 136.227 main 876 875 P_____________ WP352018 7.12749 136.227 DB 20 1005 -3 1004 150 45 5 281
2018358N07140 2018 114 WP MM NOT_NAMED 2018-12-24 18:00:00 NR 7.20000 136.000 main 886 885 O_____________ jtwc_wp WP352018 7.20000 136.000 DB 20 1005 -3 1004 150 45 4 301
2018358N07140 2018 114 WP MM NOT_NAMED 2018-12-24 21:00:00 NR 7.35497 135.842 main 907 907 P_____________ WP352018 7.35497 135.842 DB 20 1005 -3 1004 150 45 5 323
2018358N07140 2018 114 WP MM NOT_NAMED 2018-12-25 00:00:00 NR 7.60000 135.700 main 930 930 O_____________ jtwc_wp WP352018 7.60000 135.700 DB 20 1005 -3 1005 150 45 7 331
2018358N07140 2018 114 WP MM NOT_NAMED 2018-12-25 03:00:00 NR 7.92749 135.515 main 963 960 P_____________ WP352018 7.92749 135.515 DB 20 1005 -3 1005 150 45 8 331
2018358N07140 2018 114 WP MM NOT_NAMED 2018-12-25 06:00:00 NR 8.30000 135.300 main 961 941 O_____________ jtwc_wp WP352018 8.30000 135.300 DB 20 1005 -3 1005 150 45 8 330
2018358N07140 2018 114 WP MM NOT_NAMED 2018-12-25 09:00:00 NR 8.64992 135.087 main 941 914 P_____________ WP352018 8.64992 135.087 DB 20 1004 -3 1005 150 40 9 325
2018358N07140 2018 114 WP MM NOT_NAMED 2018-12-25 12:00:00 DS 9.00000 134.800 main 914 866 O__O__________ jtwc_wp WP352018 9.00000 134.800 LO 20 1004 -3 1005 150 35 9.00000 134.800 TD 25 1000 10 309
2018358N07140 2018 114 WP MM NOT_NAMED 2018-12-25 15:00:00 DS 9.30104 134.264 main 866 817 P__P__________ WP352018 9.39501 134.388 LO 20 1004 -3 1004 180 35 9.11311 134.018 TD 25 1000 12 295
2018358N07140 2018 114 WP MM NOT_NAMED 2018-12-25 18:00:00 DS 9.48571 133.729 main 806 774 O__O__________ jtwc_wp WP352018 9.70000 133.900 LO 20 1004 -3 1004 210 35 9.20000 133.500 TD 25 1000 9 286
2018358N07140 2018 114 WP MM NOT_NAMED 2018-12-25 21:00:00 DS 9.53981 133.396 main 774 746 P__P__________ WP352018 9.81746 133.407 LO 20 1004 -3 1004 205 35 9.26216 133.385 TD 25 1000 6 280
2018358N07140 2018 114 WP MM NOT_NAMED 2018-12-26 00:00:00 DS 9.60000 133.100 main 746 697 O__O__________ jtwc_wp WP352018 9.80000 132.900 LO 20 1004 -3 1004 200 35 9.40000 133.300 TD 25 1000 8 282
2018358N07140 2018 114 WP MM NOT_NAMED 2018-12-26 03:00:00 DS 9.71010 132.590 main 697 646 P__P__________ WP352018 9.69256 132.362 LO 22 1003 -3 1004 195 32 9.72764 132.818 TD 25 1000 11 284
2018358N07140 2018 114 WP MM NOT_NAMED 2018-12-26 06:00:00 DS 9.85000 132.050 main 648 597 O__O__________ jtwc_wp WP352018 9.60000 131.900 LO 25 1003 -3 1004 190 30 10.1000 132.200 TD 25 1000 10 289
2018358N07140 2018 114 WP MM NOT_NAMED 2018-12-26 09:00:00 DS 10.0474 131.616 main 597 570 P__P__________ WP352018 9.69241 131.590 LO 25 1003 -3 1004 190 50 10.4024 131.643 TD 25 1000 9 294
2018358N07140 2018 114 WP MM NOT_NAMED 2018-12-26 12:00:00 DS 10.2000 131.250 main 570 527 O__O__________ jtwc_wp WP352018 9.80000 131.400 LO 25 1003 -3 1004 190 70 10.6000 131.100 TD 25 1000 35 7 282
2018358N07140 2018 114 WP MM NOT_NAMED 2018-12-26 15:00:00 DS 10.1937 130.927 main 527 506 P__P__________ WP352018 9.74996 131.285 LO 25 1002 -3 1004 212 70 10.6375 130.570 TD 25 1000 6 265
2018358N07140 2018 114 WP MM NOT_NAMED 2018-12-26 18:00:00 DS 10.1500 130.650 main 506 474 O__O__________ jtwc_wp WP352018 9.70000 131.200 LO 25 1002 -3 1004 235 70 10.6000 130.100 TD 25 1000 5 269
2018358N07140 2018 114 WP MM NOT_NAMED 2018-12-26 21:00:00 DS 10.1887 130.389 main 474 452 P__P__________ WP352018 9.76992 131.095 LO 25 1002 -3 1004 232 70 10.6075 129.683 TD 25 1000 4 281
2018358N07140 2018 114 WP MM NOT_NAMED 2018-12-27 00:00:00 TS 10.2333 130.222 main 452 434 O_OO__________ jtwc_wp WP352018 9.90000 130.900 TD 25 1003 -1 1005 230 70 10.1000 130.800 1 25 1004 10.6000 129.400 TD 25 1000 4 284
2018358N07140 2018 114 WP MM NOT_NAMED 2018-12-27 03:00:00 TS 10.2815 130.015 main 434 413 P_PP__________ WP352018 10.0501 130.523 TD 25 1002 -1 1004 220 70 10.2077 130.373 1 25 1004 10.5499 129.328 TD 25 1000 4 283
2018358N07140 2018 114 WP MM NOT_NAMED 2018-12-27 06:00:00 TS 10.3364 129.782 main 413 396 O_OO__________ jtwc_wp WP352018 10.2000 130.100 TD 25 1002 -1 1003 210 70 10.3000 130.000 1 25 1004 10.5000 129.300 TD 25 1000 5 282
2018358N07140 2018 114 WP MM NOT_NAMED 2018-12-27 09:00:00 TS 10.3833 129.537 main 386 365 P_PP__________ WP352018 10.3075 129.770 TD 25 1001 -1 1003 205 67 10.3649 129.720 1 25 1004 10.4775 129.122 TD 27 999 5 282
2018358N07140 2018 114 WP MM NOT_NAMED 2018-12-27 12:00:00 TS 10.4333 129.300 main 365 349 O_OO__________ jtwc_wp WP352018 10.4000 129.500 TD 25 1001 -1 1004 200 65 10.4000 129.500 1 25 1004 10.5000 128.900 TD 30 998 4 285
2018358N07140 2018 114 WP MM NOT_NAMED 2018-12-27 15:00:00 TS 10.5025 129.098 main 349 334 P_PP__________ WP352018 10.5075 129.277 TD 25 1001 -1 1003 200 65 10.4000 129.292 1 25 1004 10.5999 128.723 TD 30 998 4 289
2018358N07140 2018 114 WP MM NOT_NAMED 2018-12-27 18:00:00 TS 10.5667 128.900 main 334 315 O_OO__________ jtwc_wp WP352018 10.6000 129.100 TD 25 1001 -1 1003 200 65 10.4000 129.100 1 25 1004 10.7000 128.500 TD 30 998 5 283
2018358N07140 2018 114 WP MM NOT_NAMED 2018-12-27 21:00:00 TS 10.6025 128.652 main 315 287 P_PP__________ WP352018 10.6575 128.942 TD 27 1000 -1 1003 195 57 10.4350 128.893 1 27 1002 10.7151 128.120 TD 30 998 5 278
2018358N07140 2018 114 WP MM NOT_NAMED 2018-12-28 00:00:00 TS 10.6333 128.433 main 287 286 O_OO__________ jtwc_wp WP352018 10.7000 128.800 TD 30 999 -1 1004 190 50 10.5000 128.700 1 29 1000 10.7000 127.800 TD 30 998 3 284
2018358N07140 2018 114 WP MM NOT_NAMED 2018-12-28 03:00:00 TS 10.6732 128.358 main 286 264 P_PP__________ WP352018 10.7424 128.687 TD 30 998 -1 1003 185 50 10.5772 128.625 1 29 1000 10.6999 127.763 TD 30 998 2 293
2018358N07140 2018 114 WP MM NOT_NAMED 2018-12-28 06:00:00 TS 10.7273 128.209 main 264 230 O_OO__________ jtwc_wp WP352018 10.8000 128.500 TD 30 998 -1 1003 180 50 10.7000 128.400 1 29 1000 10.7000 127.800 TD 30 998 40 5 284
2018358N07140 2018 114 WP MM NOT_NAMED 2018-12-28 09:00:00 TS 10.8031 127.841 main 219 175 P_PP__________ WP352018 10.8902 128.150 TD 27 999 -1 1004 172 50 10.8778 127.775 1 29 1000 10.6849 127.752 TD 30 998 9 282
2018358N07140 2018 114 WP MM NOT_NAMED 2018-12-28 12:00:00 MX 10.9111 127.344 main 164 120 O_OO__________ jtwc_wp WP352018 11.0000 127.700 LO 25 1001 -3 1005 165 50 11.1000 127.000 1 29 1000 10.7000 127.600 TD 30 998 10 285
2018358N07140 2018 114 WP MM NOT_NAMED 2018-12-28 15:00:00 TS 11.0710 126.852 main 120 59 __PP__________ WP352018 LO -3 11.3873 126.343 1 29 1000 10.7547 127.362 TD 30 998 11 288
2018358N07140 2018 114 WP MM NOT_NAMED 2018-12-28 18:00:00 TS 11.2500 126.300 main 64 0 __OO__________ 11.6000 125.700 1 29 1000 10.9000 126.900 TD 30 998 13 284
2018358N07140 2018 114 WP MM NOT_NAMED 2018-12-28 21:00:00 TS 11.4008 125.545 main 0 0 __PP__________ 11.5874 125.042 1 29 1000 11.2143 126.047 TD 30 998 15 280
2018358N07140 2018 114 WP MM NOT_NAMED 2018-12-29 00:00:00 TS 11.5000 124.800 main 0 0 __OO__________ 11.5000 124.400 1 29 1000 11.5000 125.200 TD 30 998 13 278
2018358N07140 2018 114 WP MM NOT_NAMED 2018-12-29 03:00:00 TS 11.5724 124.243 main 15 11 __PO__________ 11.5449 123.785 1 29 1000 11.6000 124.700 TD 30 998 14 276
2018358N07140 2018 114 WP MM NOT_NAMED 2018-12-29 06:00:00 TS 11.6500 123.400 main 39 11 __OO__________ 11.5000 123.200 1 29 1000 11.8000 123.600 TD 25 1000 14 271
2018358N07140 2018 114 WP MM NOT_NAMED 2018-12-29 09:00:00 TS 11.6049 122.821 main 11 0 __PO__________ 11.2099 122.642 1 27 1002 12.0000 123.000 TD 25 1000 14 249
2018358N07140 2018 114 WP MM NOT_NAMED 2018-12-29 12:00:00 TS 11.1500 122.050 main 0 0 __OO__________ 10.8000 122.100 1 25 1004 11.5000 122.000 TD 25 1000 17 235
2018358N07140 2018 114 WP MM NOT_NAMED 2018-12-29 15:00:00 TS 10.6357 121.400 main 59 59 __PO__________ 10.4374 121.550 1 25 1004 10.9000 121.200 TD 25 1000 14 225
2018358N07140 2018 114 WP MM NOT_NAMED 2018-12-29 18:00:00 TS 10.1600 121.040 main 101 101 __OO__________ 10.0000 121.000 1 25 1004 10.4000 121.100 TD 25 1000 18 228
2018358N07140 2018 114 WP MM NOT_NAMED 2018-12-29 21:00:00 TS 9.42512 120.033 main 117 117 __PO__________ 9.43768 120.450 1 25 1004 9.40000 119.200 TD 25 1000 18 220
2018358N07140 2018 114 WP MM NOT_NAMED 2018-12-30 00:00:00 TS 8.80000 119.900 main 157 __O___________ 8.80000 119.900 1 25 1004 13 192

Digital Typhoon Data and Search

About IBTrACS Database

This database is a web-friendly format of International Best Track Archive for Climate Stewardship (IBTrACS), a global best track data archive curated by NOAA dating back to 1842.

Updated: 2021-10-21